aviador You're here:

YCAR Decoded Metar

CARNARVON in AUSTRALIA
Report Time2018-01-16 13:03:00
UTC Time2018-01-16 13:25:49
Flight Rules mvfr MVFR
Wind210° at 16 kt
W.Decomp.*RWY 22: 15.8 kt HW 2.8 kt LCW
RWY 18: 13.9 kt HW 8.0 kt RCW
W.Rank210° ranks 5
Current wind is above 210° avg. (13.0)
Visibility9999 m
Phenomena:N/A
Clouds:Broken 012 Hf
Expected CloudBase > 1,200 ft AGL from Temp-Dew spread
Ceiling1,200 ft
Temp25°C (ISA +10)
Dew Point22°C (83% RH)
AAT23.9°C
QNH1007 hPa
Density Alt1,739 ft
Elevation26 ft
Report Wrong Elevation
Raw Report
SPECI YCAR 161303Z AUTO 21016KT 9999 // BKN012 25/22 Q1007=

Extra information for YCAR:More info

Metar Taf Metar & Taf Last 4 Metars F.Rules Stats Wind Profile Meteogram Temp Stats Airport Information Weather charts Add Link Nearby VenuesMetar ALERT Operation Metar Decoded Social comments